Time;durP1;ratioP1;P1;durP2;ratioP2;P2;SDS_P1;SDS_P2;PMS_P1;PMS_P2;Temp;Humidity;BMP_temperature;BMP_pressure;BME280_temperature;BME280_humidity;BME280_pressure;Samples;Min_cycle;Max_cycle;Signal;HPM_P1;HPM_P2
2023/09/30 00:01:09;;;;;;;24.13;9.17;;;;;;;15.85;50.35;100950.28;126950;1086;101955;-77
2023/09/30 00:03:37;;;;;;;20.50;8.67;;;;;;;15.80;50.99;100943.16;126864;1086;104216;-75
2023/09/30 00:06:06;;;;;;;22.53;9.53;;;;;;;15.74;51.21;100939.46;126808;1086;104531;-76
2023/09/30 00:08:35;;;;;;;22.50;9.30;;;;;;;15.67;51.56;100941.06;126827;1086;102156;-76
2023/09/30 00:11:05;;;;;;;21.00;9.27;;;;;;;15.60;51.02;100939.16;126883;1086;104145;-76
2023/09/30 00:13:34;;;;;;;22.20;8.75;;;;;;;15.55;51.99;100940.78;126922;1086;104220;-76
2023/09/30 00:16:05;;;;;;;20.77;9.53;;;;;;;15.51;52.46;100941.59;126828;1086;104194;-76
2023/09/30 00:18:34;;;;;;;20.77;9.30;;;;;;;15.41;53.09;100930.81;126821;1086;101808;-76
2023/09/30 00:21:03;;;;;;;23.10;10.03;;;;;;;15.34;53.38;100931.52;126905;1086;104198;-76
2023/09/30 00:23:31;;;;;;;21.60;9.47;;;;;;;15.27;53.18;100935.78;126920;1085;104216;-76
2023/09/30 00:26:03;;;;;;;19.77;9.40;;;;;;;15.24;53.31;100929.53;126996;1086;104162;-76
2023/09/30 00:28:32;;;;;;;22.27;9.70;;;;;;;15.23;52.47;100928.62;126911;1086;103252;-75
2023/09/30 00:31:01;;;;;;;21.43;9.77;;;;;;;15.19;53.76;100932.06;127030;1086;104236;-76
2023/09/30 00:33:29;;;;;;;22.27;9.50;;;;;;;15.17;53.69;100933.75;126869;1086;104228;-76
2023/09/30 00:35:58;;;;;;;21.57;9.83;;;;;;;15.18;52.76;100929.39;126861;1085;104159;-76
2023/09/30 00:38:26;;;;;;;19.37;9.40;;;;;;;15.20;52.87;100925.02;126823;1086;104174;-77
2023/09/30 00:40:55;;;;;;;19.43;9.03;;;;;;;15.24;52.96;100926.89;126783;1085;102005;-76
2023/09/30 00:43:23;;;;;;;28.85;9.50;;;;;;;15.25;52.61;100924.28;126719;1085;104187;-75
2023/09/30 00:45:58;;;;;;;20.60;9.07;;;;;;;15.27;52.71;100919.03;126651;1086;101929;-76
2023/09/30 00:48:26;;;;;;;22.27;9.70;;;;;;;15.30;52.76;100916.42;126660;1086;104267;-76
2023/09/30 00:50:57;;;;;;;19.83;9.80;;;;;;;15.34;53.25;100926.23;126681;1086;101858;-76
2023/09/30 00:53:25;;;;;;;22.23;10.07;;;;;;;15.27;53.97;100921.67;126682;1086;104258;-76
2023/09/30 00:55:56;;;;;;;22.47;9.50;;;;;;;15.17;53.66;100931.11;126708;1086;104152;-76
2023/09/30 00:58:28;;;;;;;22.97;10.27;;;;;;;15.06;54.00;100925.56;126887;1086;101970;-76
2023/09/30 01:00:59;;;;;;;23.50;10.63;;;;;;;14.93;54.07;100920.86;126808;1086;104264;-76
2023/09/30 01:03:28;;;;;;;23.30;10.10;;;;;;;14.89;53.93;100926.91;126651;1086;104258;-76
2023/09/30 01:05:57;;;;;;;20.45;9.95;;;;;;;14.85;54.21;100925.03;126588;1086;104162;-76
2023/09/30 01:08:27;;;;;;;24.83;10.00;;;;;;;14.85;54.81;100923.31;126712;1086;104162;-77
2023/09/30 01:10:56;;;;;;;22.07;9.60;;;;;;;14.81;54.15;100928.48;126839;1086;102002;-77
2023/09/30 01:13:34;;;;;;;22.17;10.03;;;;;;;14.76;55.60;100927.45;126748;1086;102012;-77
2023/09/30 01:16:05;;;;;;;22.30;10.07;;;;;;;14.69;54.58;100932.60;126607;1086;104178;-76
2023/09/30 01:18:34;;;;;;;19.07;9.70;;;;;;;14.66;55.64;100923.69;126550;1086;104153;-75
2023/09/30 01:21:05;;;;;;;20.00;10.00;;;;;;;14.65;55.72;100928.08;126702;1086;102692;-77
2023/09/30 01:23:35;;;;;;;20.73;9.33;;;;;;;14.63;55.35;100924.52;126711;1086;104231;-76
2023/09/30 01:26:05;;;;;;;19.43;9.87;;;;;;;14.61;56.56;100915.64;126641;1086;102640;-76
2023/09/30 01:28:34;;;;;;;20.43;9.50;;;;;;;14.57;56.46;100921.69;126847;1086;101852;-77
2023/09/30 01:31:04;;;;;;;21.30;10.50;;;;;;;14.51;56.92;100926.80;126791;1086;102114;-76
2023/09/30 01:33:33;;;;;;;22.87;10.03;;;;;;;14.45;56.18;100924.88;126731;1086;104184;-77
2023/09/30 01:36:03;;;;;;;24.47;10.43;;;;;;;14.43;56.07;100920.41;126715;1086;104264;-76
2023/09/30 01:38:32;;;;;;;20.20;9.90;;;;;;;14.42;56.68;100919.52;126758;1086;104255;-76
2023/09/30 01:41:01;;;;;;;21.40;9.33;;;;;;;14.41;56.34;100922.13;126693;1086;104184;-76
2023/09/30 01:43:29;;;;;;;22.77;10.20;;;;;;;14.37;57.08;100921.16;126817;1086;102243;-77
2023/09/30 01:45:58;;;;;;;20.00;9.77;;;;;;;14.36;56.66;100922.88;126805;1086;102057;-76
2023/09/30 01:48:27;;;;;;;20.47;10.27;;;;;;;14.33;57.43;100930.71;126725;1086;104229;-76
2023/09/30 01:50:55;;;;;;;23.40;10.40;;;;;;;14.28;57.19;100921.78;126616;1086;104254;-76
2023/09/30 01:53:24;;;;;;;24.10;10.00;;;;;;;14.25;57.14;100921.70;126604;1086;102314;-77
2023/09/30 01:55:54;;;;;;;20.07;10.43;;;;;;;14.23;57.28;100919.86;126579;1085;104037;-76
2023/09/30 01:58:23;;;;;;;27.07;10.30;;;;;;;14.19;57.74;100925.09;126584;1086;104290;-76
2023/09/30 02:00:54;;;;;;;20.30;10.07;;;;;;;14.15;57.76;100917.92;126601;1086;102106;-76
2023/09/30 02:03:23;;;;;;;20.23;9.40;;;;;;;14.12;57.33;100917.84;126494;1086;104242;-76
2023/09/30 02:05:51;;;;;;;18.47;9.40;;;;;;;14.12;57.73;100919.59;126572;1085;104149;-76
2023/09/30 02:08:20;;;;;;;20.30;9.17;;;;;;;14.09;57.57;100920.39;126726;1086;101922;-77
2023/09/30 02:10:50;;;;;;;20.97;9.77;;;;;;;14.06;57.05;100920.30;126697;1086;104197;-76
2023/09/30 02:13:21;;;;;;;23.47;10.17;;;;;;;14.05;57.71;100923.78;126748;1086;104245;-76
2023/09/30 02:15:49;;;;;;;22.57;10.23;;;;;;;14.03;58.49;100926.38;126326;1086;104245;-77
2023/09/30 02:18:18;;;;;;;21.77;10.27;;;;;;;13.98;58.49;100925.36;126632;1086;104171;-76
2023/09/30 02:20:47;;;;;;;22.03;9.90;;;;;;;13.96;57.77;100913.88;126755;1086;104338;-76
2023/09/30 02:23:17;;;;;;;20.47;9.23;;;;;;;13.93;58.00;100919.07;126616;1086;104049;-76
2023/09/30 02:25:47;;;;;;;26.20;9.93;;;;;;;13.93;58.60;100916.44;126639;1086;104225;-76
2023/09/30 02:28:15;;;;;;;18.77;9.93;;;;;;;13.94;58.06;100910.28;126656;1086;104165;-76
2023/09/30 02:30:44;;;;;;;20.67;10.20;;;;;;;13.93;58.13;100913.80;126626;1086;101861;-76
2023/09/30 02:33:12;;;;;;;22.60;10.23;;;;;;;13.92;59.01;100913.75;126583;1086;107078;-76
2023/09/30 02:35:46;;;;;;;23.03;10.77;;;;;;;13.91;58.28;100910.20;126662;1085;101991;-76
2023/09/30 02:38:17;;;;;;;23.10;10.50;;;;;;;13.90;58.50;100915.43;126577;1086;101913;-76
2023/09/30 02:40:48;;;;;;;26.55;9.90;;;;;;;13.90;59.10;100911.06;126486;1086;102071;-75
2023/09/30 02:43:17;;;;;;;18.07;10.10;;;;;;;13.88;58.91;100899.55;126545;1086;118847;-76
2023/09/30 02:45:46;;;;;;;19.00;9.80;;;;;;;13.86;58.90;100901.27;126534;1086;104210;-76
2023/09/30 02:48:14;;;;;;;21.33;10.13;;;;;;;13.82;58.36;100909.93;126550;1086;102109;-76
2023/09/30 02:50:45;;;;;;;21.20;10.37;;;;;;;13.79;59.08;100912.48;126549;1086;104235;-76
2023/09/30 02:53:14;;;;;;;19.20;10.07;;;;;;;13.75;59.04;100907.98;126590;1086;104165;-75
2023/09/30 02:55:43;;;;;;;25.30;10.67;;;;;;;13.71;59.01;100914.89;126617;1086;102395;-76
2023/09/30 02:58:13;;;;;;;23.73;10.27;;;;;;;13.69;58.91;100903.41;126652;1086;101999;-76
2023/09/30 03:00:41;;;;;;;23.33;10.47;;;;;;;13.66;59.34;100905.95;126644;1086;104721;-75
2023/09/30 03:03:10;;;;;;;21.70;10.63;;;;;;;13.64;58.78;100910.30;126779;1086;104146;-76
2023/09/30 03:05:38;;;;;;;20.47;10.23;;;;;;;13.63;59.43;100906.78;126673;1086;102427;-77
2023/09/30 03:08:07;;;;;;;21.40;9.97;;;;;;;13.61;59.58;100905.82;126697;1086;102465;-77
2023/09/30 03:10:40;;;;;;;23.17;10.53;;;;;;;13.61;59.74;100908.45;126571;1086;104213;-76
2023/09/30 03:13:09;;;;;;;20.35;10.25;;;;;;;13.58;59.10;100908.36;126650;1086;104191;-75
2023/09/30 03:15:38;;;;;;;19.60;9.97;;;;;;;13.55;58.95;100910.91;126717;1086;104200;-76
2023/09/30 03:18:07;;;;;;;23.57;10.50;;;;;;;13.52;59.99;100909.94;126761;1086;104159;-75
2023/09/30 03:20:42;;;;;;;21.97;10.70;;;;;;;13.47;59.50;100908.04;126740;1086;102109;-76
2023/09/30 03:23:14;;;;;;;20.90;10.30;;;;;;;13.47;59.45;100907.16;126679;1085;101996;-76
2023/09/30 03:25:42;;;;;;;23.00;10.80;;;;;;;13.47;60.18;100907.16;126688;1086;104184;-76
2023/09/30 03:28:11;;;;;;;22.63;10.20;;;;;;;13.45;59.57;100908.86;126636;1086;104159;-76
2023/09/30 03:30:41;;;;;;;30.80;11.70;;;;;;;13.43;59.48;100911.45;126725;1086;101821;-76
2023/09/30 03:33:10;;;;;;;22.40;10.63;;;;;;;13.41;59.75;100909.60;126720;1086;104257;-77
2023/09/30 03:35:38;;;;;;;24.03;10.37;;;;;;;13.39;59.80;100906.04;126621;1086;104191;-76
2023/09/30 03:38:09;;;;;;;22.40;11.37;;;;;;;13.34;59.66;100903.27;126762;1086;104254;-77
2023/09/30 03:40:38;;;;;;;21.93;10.47;;;;;;;13.30;59.59;100902.22;126738;1086;102063;-76
2023/09/30 03:43:07;;;;;;;20.07;11.17;;;;;;;13.29;60.25;100902.16;126709;1086;104286;-76
2023/09/30 03:45:36;;;;;;;23.80;10.83;;;;;;;13.26;60.10;100902.98;126628;1085;104162;-76
2023/09/30 03:48:06;;;;;;;20.23;10.77;;;;;;;13.25;60.16;100910.84;126772;1086;102322;-76
2023/09/30 03:50:35;;;;;;;23.47;11.13;;;;;;;13.22;59.81;100906.36;126683;1086;102142;-75
2023/09/30 03:53:06;;;;;;;22.60;10.30;;;;;;;13.19;59.69;100905.38;126738;1085;101797;-76
2023/09/30 03:55:34;;;;;;;19.90;10.63;;;;;;;13.15;60.04;100904.40;126754;1086;104239;-75
2023/09/30 03:58:04;;;;;;;23.83;10.70;;;;;;;13.13;60.10;100908.70;126781;1086;101900;-75
2023/09/30 04:00:32;;;;;;;23.80;11.13;;;;;;;13.11;59.94;100907.77;126697;1086;104673;-76
2023/09/30 04:03:02;;;;;;;24.30;11.70;;;;;;;13.09;59.81;100906.84;126810;1086;101983;-76
2023/09/30 04:05:36;;;;;;;21.10;10.90;;;;;;;13.08;59.98;100911.19;126578;1086;104309;-76
2023/09/30 04:08:05;;;;;;;25.72;12.23;;;;;;;13.06;60.42;100907.63;126738;1086;104159;-76
2023/09/30 04:10:34;;;;;;;22.57;10.93;;;;;;;13.02;60.38;100910.99;126702;1086;104258;-76
2023/09/30 04:13:03;;;;;;;21.53;11.30;;;;;;;12.99;60.23;100912.64;126626;1086;104746;-76
2023/09/30 04:15:32;;;;;;;25.60;12.30;;;;;;;12.99;60.32;100907.38;126772;1086;104232;-76
2023/09/30 04:18:00;;;;;;;26.30;11.57;;;;;;;13.01;60.64;100918.84;126633;1086;104218;-76
2023/09/30 04:20:29;;;;;;;29.80;12.30;;;;;;;13.01;61.52;100916.21;126731;1086;102067;-77
2023/09/30 04:22:58;;;;;;;22.27;11.27;;;;;;;13.02;61.27;100910.99;126721;1084;101826;-76
2023/09/30 04:25:27;;;;;;;23.83;11.30;;;;;;;13.05;61.83;100913.73;126678;1086;102115;-76
2023/09/30 04:27:56;;;;;;;25.13;11.67;;;;;;;13.08;61.07;100910.31;126587;1086;101813;-76
2023/09/30 04:30:24;;;;;;;28.25;12.20;;;;;;;13.12;61.12;100921.00;126668;1086;104191;-77
2023/09/30 04:32:54;;;;;;;23.63;11.23;;;;;;;13.14;61.41;100913.14;126848;1086;104197;-77
2023/09/30 04:35:26;;;;;;;24.03;11.47;;;;;;;13.18;61.32;100912.37;126751;1086;101885;-76
2023/09/30 04:37:55;;;;;;;24.95;11.30;;;;;;;13.20;61.78;100913.34;126769;1086;101946;-76
2023/09/30 04:40:23;;;;;;;21.43;11.97;;;;;;;13.20;61.50;100913.34;128009;1085;101824;-76
2023/09/30 04:42:55;;;;;;;22.10;11.90;;;;;;;13.21;61.77;100911.58;127503;1086;104182;-77
2023/09/30 04:45:25;;;;;;;24.23;11.40;;;;;;;13.22;61.86;100916.02;126764;1086;104149;-76
2023/09/30 04:47:53;;;;;;;25.43;12.10;;;;;;;13.24;61.70;100919.59;126918;1086;102315;-75
2023/09/30 04:50:22;;;;;;;24.90;13.03;;;;;;;13.22;62.19;100916.90;127128;1086;104376;-76
2023/09/30 04:52:52;;;;;;;24.30;12.17;;;;;;;13.21;62.20;100917.73;126787;1086;104582;-75
2023/09/30 04:55:20;;;;;;;26.33;12.03;;;;;;;13.21;62.24;100920.38;126964;1086;104209;-75
2023/09/30 04:57:49;;;;;;;23.57;12.47;;;;;;;13.20;62.62;100923.88;127395;1086;104166;-76
2023/09/30 05:00:24;;;;;;;22.53;11.53;;;;;;;13.21;62.63;100924.76;128344;1086;101824;-76
2023/09/30 05:02:53;;;;;;;23.60;11.70;;;;;;;13.22;62.71;100922.17;126990;1086;101958;-75
2023/09/30 05:05:22;;;;;;;26.10;12.53;;;;;;;13.25;62.68;100922.27;126893;1086;104182;-75
2023/09/30 05:07:51;;;;;;;28.40;12.30;;;;;;;13.29;62.18;100918.89;126928;1086;104152;-76
2023/09/30 05:10:19;;;;;;;26.43;12.30;;;;;;;13.33;62.28;100924.27;127119;1086;104281;-76
2023/09/30 05:12:48;;;;;;;23.40;11.80;;;;;;;13.37;62.56;100923.52;127921;1085;101807;-76
2023/09/30 05:15:19;;;;;;;20.97;11.77;;;;;;;13.39;62.08;100929.77;126719;1086;101986;-76
2023/09/30 05:17:48;;;;;;;22.67;12.10;;;;;;;13.42;62.40;100925.47;126701;1086;102017;-76
2023/09/30 05:20:18;;;;;;;23.03;11.93;;;;;;;13.48;62.30;100927.41;127776;1085;104159;-76
2023/09/30 05:22:48;;;;;;;25.27;11.70;;;;;;;13.52;62.58;100924.00;126770;1086;104153;-75
2023/09/30 05:25:17;;;;;;;22.27;11.60;;;;;;;13.58;62.71;100931.21;127104;1086;103831;-75
2023/09/30 05:27:47;;;;;;;27.10;12.03;;;;;;;13.61;62.69;100932.19;126904;1086;102074;-74
2023/09/30 05:30:16;;;;;;;27.43;11.87;;;;;;;13.65;62.55;100934.08;127036;1086;104197;-76
2023/09/30 05:32:46;;;;;;;28.33;11.10;;;;;;;13.71;63.29;100935.98;128223;1085;101745;-76
2023/09/30 05:35:16;;;;;;;25.87;11.30;;;;;;;13.76;62.89;100934.41;128434;1085;101702;-76
2023/09/30 05:37:45;;;;;;;26.10;11.53;;;;;;;13.81;62.96;100934.54;127154;1086;104252;-76
2023/09/30 05:40:21;;;;;;;27.73;12.30;;;;;;;13.87;63.38;100939.08;127286;1086;102332;-75
2023/09/30 05:42:50;;;;;;;24.80;12.35;;;;;;;13.89;63.62;100935.65;127403;1086;104178;-76
2023/09/30 05:45:19;;;;;;;28.07;11.93;;;;;;;13.91;62.89;100930.42;127352;1086;104768;-75
2023/09/30 05:47:48;;;;;;;25.83;11.93;;;;;;;13.95;63.48;100933.19;128071;1086;102016;-75
2023/09/30 05:50:17;;;;;;;23.00;11.37;;;;;;;14.03;63.36;100923.73;127316;1085;102031;-77
2023/09/30 05:52:45;;;;;;;22.40;11.30;;;;;;;14.12;62.48;100930.16;126856;1086;104156;-76
2023/09/30 05:55:16;;;;;;;26.17;12.07;;;;;;;14.23;62.32;100933.06;127329;1086;101967;-75
2023/09/30 05:57:45;;;;;;;28.10;11.70;;;;;;;14.33;62.39;100929.83;127297;1086;101889;-75
2023/09/30 06:00:28;;;;;;;21.47;11.37;;;;;;;14.43;62.23;100934.52;127490;1086;102299;-75
2023/09/30 06:02:57;;;;;;;21.37;11.37;;;;;;;14.56;62.05;100933.09;128189;1085;104175;-75
2023/09/30 06:05:26;;;;;;;21.13;11.23;;;;;;;14.67;61.94;100929.01;127523;1086;101983;-76
2023/09/30 06:07:55;;;;;;;25.10;10.83;;;;;;;14.74;61.91;100936.25;127546;1086;101912;-76
2023/09/30 06:10:25;;;;;;;21.07;11.10;;;;;;;14.80;61.43;100935.48;127531;1086;101849;-75
2023/09/30 06:12:55;;;;;;;25.27;12.10;;;;;;;14.87;61.36;100933.92;127559;1086;104231;-75
2023/09/30 06:15:25;;;;;;;25.80;10.73;;;;;;;14.94;61.97;100934.95;128245;1085;104288;-75
2023/09/30 06:17:54;;;;;;;25.73;11.40;;;;;;;15.02;61.07;100933.39;128040;1085;102082;-76
2023/09/30 06:20:26;;;;;;;24.90;10.63;;;;;;;15.12;61.82;100939.81;127024;1086;104226;-74
2023/09/30 06:22:55;;;;;;;20.87;10.00;;;;;;;15.22;61.36;100936.51;127054;1086;104175;-74
2023/09/30 06:25:24;;;;;;;22.90;10.90;;;;;;;15.30;61.38;100931.41;127247;1085;102528;-74
2023/09/30 06:27:54;;;;;;;20.33;10.10;;;;;;;15.39;60.86;100932.50;126970;1085;102228;-73
2023/09/30 06:30:29;;;;;;;24.23;9.83;;;;;;;15.48;59.54;100931.83;127123;1086;104034;-74
2023/09/30 06:32:59;;;;;;;19.60;9.97;;;;;;;15.59;60.42;100932.07;126965;1086;104177;-74
2023/09/30 06:35:30;;;;;;;20.10;9.17;;;;;;;15.72;59.47;100933.22;127049;1086;104152;-75
2023/09/30 06:37:59;;;;;;;23.73;9.67;;;;;;;15.84;60.16;100930.88;127073;1086;102094;-74
2023/09/30 06:40:28;;;;;;;22.10;9.70;;;;;;;15.98;58.88;100933.81;127246;1086;102041;-75
2023/09/30 06:42:57;;;;;;;19.20;8.80;;;;;;;16.15;59.19;100934.16;127110;1085;102111;-76
2023/09/30 06:45:26;;;;;;;21.83;9.70;;;;;;;16.31;59.51;100932.69;126787;1086;104030;-76
2023/09/30 06:47:54;;;;;;;24.57;9.80;;;;;;;16.48;59.12;100936.53;126787;1086;104236;-75
2023/09/30 06:50:23;;;;;;;20.47;9.20;;;;;;;16.68;58.44;100921.00;126950;1086;102027;-75
2023/09/30 06:52:52;;;;;;;20.20;9.30;;;;;;;16.88;58.31;100929.33;127902;1085;101891;-76
2023/09/30 06:55:21;;;;;;;27.63;9.60;;;;;;;17.07;57.89;100934.94;127086;1086;104159;-75
2023/09/30 06:57:49;;;;;;;20.60;10.30;;;;;;;17.25;57.91;100931.69;127312;1086;104158;-75
2023/09/30 07:00:18;;;;;;;21.70;9.40;;;;;;;17.43;57.46;100937.23;128150;1085;101733;-74
2023/09/30 07:02:47;;;;;;;19.87;9.00;;;;;;;17.61;57.12;100933.97;127139;1086;104165;-75
2023/09/30 07:05:16;;;;;;;25.37;9.70;;;;;;;17.81;56.75;100930.70;127111;1085;104210;-75
2023/09/30 07:07:45;;;;;;;24.00;9.60;;;;;;;18.01;56.67;100924.77;127308;1086;104328;-74
2023/09/30 07:10:14;;;;;;;19.17;9.20;;;;;;;18.19;56.65;100924.98;127557;1085;101829;-75
2023/09/30 07:12:42;;;;;;;19.90;9.60;;;;;;;18.36;55.93;100921.63;127069;1086;104265;-74
2023/09/30 07:15:13;;;;;;;22.20;9.47;;;;;;;18.55;55.95;100922.70;126960;1086;102003;-75
2023/09/30 07:17:43;;;;;;;20.27;9.53;;;;;;;18.76;54.80;100921.99;126746;1086;102035;-75
2023/09/30 07:20:12;;;;;;;17.73;9.20;;;;;;;18.95;54.00;100925.76;126951;1086;101944;-75
2023/09/30 07:22:41;;;;;;;20.07;8.90;;;;;;;19.11;54.80;100924.98;128061;1085;101812;-74
2023/09/30 07:25:10;;;;;;;22.97;9.40;;;;;;;19.25;53.83;100919.76;126989;1086;102012;-76
2023/09/30 07:27:39;;;;;;;18.80;9.50;;;;;;;19.38;54.16;100918.97;127363;1085;102170;-75
2023/09/30 07:30:12;;;;;;;19.87;8.97;;;;;;;19.53;54.26;100918.15;126814;1086;104172;-76
2023/09/30 07:32:41;;;;;;;23.30;9.25;;;;;;;19.72;53.23;100915.59;127914;1085;104021;-76
2023/09/30 07:35:11;;;;;;;17.17;8.33;;;;;;;19.85;52.85;100917.47;126680;1086;104251;-74
2023/09/30 07:37:41;;;;;;;22.67;8.83;;;;;;;20.01;52.69;100921.07;126680;1086;102907;-76
2023/09/30 07:40:12;;;;;;;23.10;9.07;;;;;;;20.15;52.30;100914.87;126690;1086;104234;-75
2023/09/30 07:42:40;;;;;;;19.50;9.00;;;;;;;20.25;51.88;100908.70;126741;1086;104257;-75
2023/09/30 07:45:16;;;;;;;19.63;9.03;;;;;;;20.35;52.27;100913.18;127907;1085;101837;-75
2023/09/30 07:47:46;;;;;;;21.13;9.43;;;;;;;20.47;51.41;100917.63;127014;1086;102222;-76
2023/09/30 07:50:15;;;;;;;18.37;8.90;;;;;;;20.61;51.68;100917.64;126618;1086;104248;-76
2023/09/30 07:52:44;;;;;;;20.10;8.50;;;;;;;20.71;50.93;100919.48;126725;1086;104219;-76
2023/09/30 07:55:13;;;;;;;22.23;9.23;;;;;;;20.84;50.24;100915.02;126815;1086;104206;-74
2023/09/30 07:57:43;;;;;;;19.27;8.50;;;;;;;20.98;51.56;100915.02;126654;1086;104251;-74
2023/09/30 08:00:15;;;;;;;21.70;9.60;;;;;;;21.12;50.79;100915.89;126968;1085;101970;-75
2023/09/30 08:02:44;;;;;;;24.77;9.03;;;;;;;21.24;50.04;100916.76;128118;1085;104218;-75
2023/09/30 08:05:14;;;;;;;19.77;8.80;;;;;;;21.33;50.23;100914.08;127601;1086;102080;-76
2023/09/30 08:07:42;;;;;;;19.95;8.60;;;;;;;21.45;50.00;100911.37;127005;1086;104206;-76
2023/09/30 08:10:13;;;;;;;18.53;8.90;;;;;;;21.61;49.49;100917.59;127919;1085;104149;-76
2023/09/30 08:12:42;;;;;;;18.57;8.80;;;;;;;21.77;50.31;100913.11;127091;1086;104132;-75
2023/09/30 08:15:12;;;;;;;21.23;9.17;;;;;;;21.81;48.61;100906.84;128232;1085;101807;-76
2023/09/30 08:17:41;;;;;;;21.53;8.53;;;;;;;21.88;48.33;100910.39;127064;1086;104162;-77
2023/09/30 08:20:11;;;;;;;23.63;8.80;;;;;;;21.98;47.43;100906.77;128078;1085;104271;-76
2023/09/30 08:22:40;;;;;;;18.53;8.53;;;;;;;22.08;47.79;100915.64;127907;1085;104213;-76
2023/09/30 08:25:10;;;;;;;21.63;8.50;;;;;;;22.18;47.10;100914.68;126996;1085;102060;-76
2023/09/30 08:27:52;;;;;;;20.10;8.40;;;;;;;22.33;47.07;100903.05;127482;1086;104218;-77
2023/09/30 08:30:20;;;;;;;19.30;8.50;;;;;;;22.47;46.85;100904.73;127010;1086;104149;-76
2023/09/30 08:32:49;;;;;;;23.07;8.20;;;;;;;22.57;47.15;100907.33;128272;1085;104043;-78
2023/09/30 08:35:18;;;;;;;20.03;8.37;;;;;;;22.69;46.27;100901.01;128233;1085;101903;-77
2023/09/30 08:37:46;;;;;;;23.07;8.33;;;;;;;22.78;45.80;100900.94;127519;1086;104222;-76
2023/09/30 08:40:20;;;;;;;18.20;8.63;;;;;;;22.93;46.30;100896.34;127344;1086;104231;-75
2023/09/30 08:42:49;;;;;;;;;;;;;;;23.06;45.48;100895.34;127439;1086;102066;-76
2023/09/30 08:45:18;;;;;;;21.03;8.13;;;;;;;23.17;45.44;100897.03;127839;1085;104218;-75
2023/09/30 08:47:48;;;;;;;16.33;7.43;;;;;;;23.23;45.10;100897.85;127343;1086;101954;-75
2023/09/30 08:50:18;;;;;;;20.43;8.40;;;;;;;23.36;44.68;100892.38;126725;1086;101949;-75
2023/09/30 08:52:47;;;;;;;17.40;8.23;;;;;;;23.44;44.17;100894.08;126900;1086;104169;-75
2023/09/30 08:55:16;;;;;;;26.20;8.90;;;;;;;23.50;44.69;100885.97;128281;1085;101902;-75
2023/09/30 08:57:46;;;;;;;22.40;8.83;;;;;;;23.54;43.79;100880.58;127331;1085;104210;-76
2023/09/30 09:00:16;;;;;;;19.63;8.83;;;;;;;23.63;43.73;100884.02;127090;1086;102680;-76
2023/09/30 09:02:44;;;;;;;21.57;8.80;;;;;;;23.75;43.54;100884.77;127146;1086;104171;-76
2023/09/30 09:05:13;;;;;;;19.50;7.63;;;;;;;23.89;43.37;100874.81;127252;1086;102317;-75
2023/09/30 09:07:43;;;;;;;16.97;7.63;;;;;;;23.99;42.59;100879.12;126782;1086;102210;-74
2023/09/30 09:10:13;;;;;;;19.47;8.30;;;;;;;24.15;42.82;100873.55;127122;1086;102584;-75
2023/09/30 09:12:44;;;;;;;18.47;7.87;;;;;;;24.31;42.76;100872.42;127149;1086;104233;-76
2023/09/30 09:15:23;;;;;;;20.83;8.13;;;;;;;24.44;42.05;100875.79;127159;1085;101900;-76
2023/09/30 09:17:53;;;;;;;18.90;8.20;;;;;;;24.53;41.97;100864.92;126976;1085;104233;-75
2023/09/30 09:20:23;;;;;;;18.07;8.20;;;;;;;24.58;41.26;100873.80;127627;1086;102003;-76
2023/09/30 09:22:53;;;;;;;16.53;7.70;;;;;;;24.65;40.91;100873.70;127266;1086;104283;-75
2023/09/30 09:25:23;;;;;;;17.10;8.10;;;;;;;24.70;40.83;100870.04;127035;1085;101963;-75
2023/09/30 09:27:53;;;;;;;19.30;7.73;;;;;;;24.78;40.75;100869.00;126981;1086;101913;-78
2023/09/30 09:30:23;;;;;;;16.40;7.53;;;;;;;24.89;40.26;100869.72;126792;1086;104616;-76
2023/09/30 09:33:00;;;;;;;17.67;7.60;;;;;;;25.03;39.98;100864.98;126841;1086;104231;-76
2023/09/30 09:35:30;;;;;;;18.07;7.13;;;;;;;25.18;39.77;100860.23;126496;1086;102238;-75
2023/09/30 09:38:00;;;;;;;17.27;7.40;;;;;;;25.25;39.85;100856.52;126805;1086;101834;-75
2023/09/30 09:40:30;;;;;;;15.53;7.30;;;;;;;25.25;38.82;100859.20;126787;1086;101942;-75
2023/09/30 09:43:02;;;;;;;15.27;7.03;;;;;;;25.32;37.82;100844.77;126810;1086;101880;-75
2023/09/30 09:45:32;;;;;;;16.50;7.00;;;;;;;25.45;37.27;100846.30;126720;1086;102057;-76
2023/09/30 09:48:04;;;;;;;13.90;6.80;;;;;;;25.47;37.45;100847.14;126668;1086;102002;-75
2023/09/30 09:50:36;;;;;;;13.47;6.70;;;;;;;25.53;37.34;100846.14;126564;1086;104047;-75
2023/09/30 09:53:06;;;;;;;13.60;6.23;;;;;;;25.56;37.24;100837.14;126639;1086;104165;-75
2023/09/30 09:55:38;;;;;;;13.40;6.37;;;;;;;25.63;36.81;100836.98;126481;1086;104168;-75
2023/09/30 09:58:10;;;;;;;12.50;6.50;;;;;;;25.62;35.78;100835.20;126571;1086;104184;-76
2023/09/30 10:00:41;;;;;;;13.50;6.30;;;;;;;25.68;35.62;100842.26;126738;1086;104200;-75
2023/09/30 10:03:09;;;;;;;13.90;5.83;;;;;;;25.69;34.83;100835.94;126876;1086;104200;-75
2023/09/30 10:05:40;;;;;;;11.93;5.80;;;;;;;25.71;34.25;100836.81;126685;1086;102296;-76
2023/09/30 10:08:14;;;;;;;11.83;6.20;;;;;;;25.72;33.49;100826.94;126698;1085;104252;-77
2023/09/30 10:10:44;;;;;;;11.43;6.00;;;;;;;25.85;34.06;100817.66;126767;1086;104207;-76
2023/09/30 10:13:56;;;;;;;14.50;5.70;;;;;;;25.93;33.88;100828.24;126820;1086;104168;-76
2023/09/30 10:16:50;;;;;;;16.10;6.30;;;;;;;25.96;33.64;100825.48;126859;1086;102002;-78
2023/09/30 10:19:22;;;;;;;14.90;6.10;;;;;;;25.94;33.56;100816.58;126683;1086;104206;-75
2023/09/30 10:22:22;;;;;;;15.80;6.53;;;;;;;26.02;33.49;100817.31;127790;1086;102235;-74
2023/09/30 10:24:52;;;;;;;12.93;6.37;;;;;;;26.13;33.47;100811.69;126746;1086;101809;-74
2023/09/30 10:27:36;;;;;;;11.27;6.07;;;;;;;26.14;32.37;100800.89;126682;1086;101846;-75
2023/09/30 10:30:16;;;;;;;11.67;6.20;;;;;;;26.14;32.01;100802.70;126366;1086;104171;-74
2023/09/30 10:33:12;;;;;;;11.83;6.07;;;;;;;26.21;32.69;100798.05;126431;1086;101951;-77
2023/09/30 10:35:46;;;;;;;12.83;5.80;;;;;;;26.23;32.90;100794.42;126802;1086;104166;-75
2023/09/30 10:38:43;;;;;;;11.17;6.50;;;;;;;26.17;32.05;100792.75;127122;1086;104309;-75
2023/09/30 10:41:31;;;;;;;11.37;5.90;;;;;;;26.25;31.92;100786.31;126699;1086;102045;-76
2023/09/30 10:44:36;;;;;;;13.23;5.70;;;;;;;26.28;31.94;100787.11;126693;1086;104357;-77
2023/09/30 10:47:36;;;;;;;13.17;6.03;;;;;;;26.33;32.01;100786.99;126589;1086;104127;-77
2023/09/30 10:50:26;;;;;;;14.23;6.10;;;;;;;26.36;32.19;100778.84;126633;1086;104228;-76
2023/09/30 10:52:55;;;;;;;11.97;6.30;;;;;;;26.39;31.15;100775.20;126464;1085;104222;-76
2023/09/30 10:55:25;;;;;;;14.23;6.20;;;;;;;26.44;31.02;100781.34;126743;1086;104177;-77
2023/09/30 10:57:53;;;;;;;11.77;5.83;;;;;;;26.42;30.86;100775.13;126602;1086;101934;-76
2023/09/30 11:00:23;;;;;;;10.07;5.97;;;;;;;26.43;31.04;100775.09;126390;1086;104360;-75
2023/09/30 11:02:53;;;;;;;10.63;6.20;;;;;;;26.42;31.02;100767.93;126373;1086;102016;-75
2023/09/30 11:05:23;;;;;;;10.97;5.83;;;;;;;26.43;30.94;100771.49;126368;1086;104190;-75
2023/09/30 11:07:55;;;;;;;12.27;6.10;;;;;;;26.44;31.11;100767.89;126850;1086;101848;-75
2023/09/30 11:10:24;;;;;;;13.73;6.13;;;;;;;26.50;30.98;100759.66;127109;1086;101764;-77
2023/09/30 11:12:57;;;;;;;15.73;6.40;;;;;;;26.54;30.62;100764.92;126888;1085;102067;-77
2023/09/30 11:15:25;;;;;;;;;;;;;;;26.51;30.72;100767.69;126601;1086;104322;-76